sensor_id;sensor_type;location;lat;lon;timestamp;P1;durP1;ratioP1;P2;durP2;ratioP2
9767;SDS011;4923;52.520;13.494;2023-05-07T00:00:23;9.63;;;7.85;;
9767;SDS011;4923;52.520;13.494;2023-05-07T00:03:11;7.55;;;6.97;;
9767;SDS011;4923;52.520;13.494;2023-05-07T00:05:59;8.80;;;7.93;;
9767;SDS011;4923;52.520;13.494;2023-05-07T00:08:45;8.68;;;7.75;;
9767;SDS011;4923;52.520;13.494;2023-05-07T00:11:32;8.23;;;7.60;;
9767;SDS011;4923;52.520;13.494;2023-05-07T00:14:20;8.00;;;7.18;;
9767;SDS011;4923;52.520;13.494;2023-05-07T00:17:07;7.70;;;6.90;;
9767;SDS011;4923;52.520;13.494;2023-05-07T00:19:55;7.80;;;7.18;;
9767;SDS011;4923;52.520;13.494;2023-05-07T00:22:42;8.00;;;7.28;;
9767;SDS011;4923;52.520;13.494;2023-05-07T00:25:29;7.88;;;7.20;;
9767;SDS011;4923;52.520;13.494;2023-05-07T00:28:15;9.90;;;7.60;;
9767;SDS011;4923;52.520;13.494;2023-05-07T00:31:02;10.75;;;7.60;;
9767;SDS011;4923;52.520;13.494;2023-05-07T00:33:49;7.10;;;6.50;;
9767;SDS011;4923;52.520;13.494;2023-05-07T00:36:37;9.10;;;7.57;;
9767;SDS011;4923;52.520;13.494;2023-05-07T00:39:24;9.00;;;8.07;;
9767;SDS011;4923;52.520;13.494;2023-05-07T00:42:11;8.48;;;7.15;;
9767;SDS011;4923;52.520;13.494;2023-05-07T00:44:58;7.97;;;7.32;;
9767;SDS011;4923;52.520;13.494;2023-05-07T00:47:45;9.20;;;8.30;;
9767;SDS011;4923;52.520;13.494;2023-05-07T00:50:32;10.45;;;7.65;;
9767;SDS011;4923;52.520;13.494;2023-05-07T00:53:20;12.60;;;8.85;;
9767;SDS011;4923;52.520;13.494;2023-05-07T00:56:07;9.23;;;7.50;;
9767;SDS011;4923;52.520;13.494;2023-05-07T00:58:55;13.57;;;7.63;;
9767;SDS011;4923;52.520;13.494;2023-05-07T01:01:42;7.70;;;7.10;;
9767;SDS011;4923;52.520;13.494;2023-05-07T01:04:29;10.75;;;6.80;;
9767;SDS011;4923;52.520;13.494;2023-05-07T01:07:16;7.38;;;6.78;;
9767;SDS011;4923;52.520;13.494;2023-05-07T01:10:04;9.25;;;7.10;;
9767;SDS011;4923;52.520;13.494;2023-05-07T01:12:52;7.78;;;7.07;;
9767;SDS011;4923;52.520;13.494;2023-05-07T01:15:40;8.30;;;7.40;;
9767;SDS011;4923;52.520;13.494;2023-05-07T01:18:27;9.05;;;8.25;;
9767;SDS011;4923;52.520;13.494;2023-05-07T01:21:15;8.23;;;7.43;;
9767;SDS011;4923;52.520;13.494;2023-05-07T01:24:05;7.68;;;6.97;;
9767;SDS011;4923;52.520;13.494;2023-05-07T01:26:52;8.40;;;7.57;;
9767;SDS011;4923;52.520;13.494;2023-05-07T01:29:39;11.65;;;7.10;;
9767;SDS011;4923;52.520;13.494;2023-05-07T01:32:27;8.40;;;7.63;;
9767;SDS011;4923;52.520;13.494;2023-05-07T01:35:18;9.00;;;6.30;;
9767;SDS011;4923;52.520;13.494;2023-05-07T01:38:07;7.03;;;6.43;;
9767;SDS011;4923;52.520;13.494;2023-05-07T01:40:56;9.27;;;6.47;;
9767;SDS011;4923;52.520;13.494;2023-05-07T01:43:44;6.80;;;6.22;;
9767;SDS011;4923;52.520;13.494;2023-05-07T01:46:32;10.90;;;7.40;;
9767;SDS011;4923;52.520;13.494;2023-05-07T01:49:19;9.35;;;6.50;;
9767;SDS011;4923;52.520;13.494;2023-05-07T01:52:06;7.22;;;6.53;;
9767;SDS011;4923;52.520;13.494;2023-05-07T01:54:53;12.35;;;6.80;;
9767;SDS011;4923;52.520;13.494;2023-05-07T01:57:42;6.50;;;5.88;;
9767;SDS011;4923;52.520;13.494;2023-05-07T02:00:29;13.75;;;7.90;;
9767;SDS011;4923;52.520;13.494;2023-05-07T02:03:16;7.60;;;6.85;;
9767;SDS011;4923;52.520;13.494;2023-05-07T02:06:03;12.38;;;7.30;;
9767;SDS011;4923;52.520;13.494;2023-05-07T02:08:49;7.50;;;6.20;;
9767;SDS011;4923;52.520;13.494;2023-05-07T02:11:36;8.13;;;6.45;;
9767;SDS011;4923;52.520;13.494;2023-05-07T02:14:24;9.43;;;6.35;;
9767;SDS011;4923;52.520;13.494;2023-05-07T02:17:11;7.30;;;6.60;;
9767;SDS011;4923;52.520;13.494;2023-05-07T02:19:58;6.47;;;6.03;;
9767;SDS011;4923;52.520;13.494;2023-05-07T02:22:45;9.85;;;6.70;;
9767;SDS011;4923;52.520;13.494;2023-05-07T02:25:32;6.50;;;6.00;;
9767;SDS011;4923;52.520;13.494;2023-05-07T02:28:19;6.78;;;6.07;;
9767;SDS011;4923;52.520;13.494;2023-05-07T02:31:07;8.20;;;6.97;;
9767;SDS011;4923;52.520;13.494;2023-05-07T02:33:54;11.65;;;6.43;;
9767;SDS011;4923;52.520;13.494;2023-05-07T02:36:41;8.85;;;6.43;;
9767;SDS011;4923;52.520;13.494;2023-05-07T02:39:28;6.32;;;5.82;;
9767;SDS011;4923;52.520;13.494;2023-05-07T02:42:14;6.80;;;6.15;;
9767;SDS011;4923;52.520;13.494;2023-05-07T02:45:01;6.88;;;6.22;;
9767;SDS011;4923;52.520;13.494;2023-05-07T02:47:50;6.65;;;6.07;;
9767;SDS011;4923;52.520;13.494;2023-05-07T02:50:37;7.90;;;7.15;;
9767;SDS011;4923;52.520;13.494;2023-05-07T02:53:23;6.93;;;6.25;;
9767;SDS011;4923;52.520;13.494;2023-05-07T02:56:11;6.20;;;5.63;;
9767;SDS011;4923;52.520;13.494;2023-05-07T02:58:58;7.57;;;5.80;;
9767;SDS011;4923;52.520;13.494;2023-05-07T03:01:45;7.07;;;6.40;;
9767;SDS011;4923;52.520;13.494;2023-05-07T03:04:33;7.35;;;6.72;;
9767;SDS011;4923;52.520;13.494;2023-05-07T03:07:20;12.90;;;6.80;;
9767;SDS011;4923;52.520;13.494;2023-05-07T03:10:07;11.80;;;7.40;;
9767;SDS011;4923;52.520;13.494;2023-05-07T03:12:54;6.10;;;5.70;;
9767;SDS011;4923;52.520;13.494;2023-05-07T03:15:41;8.38;;;6.35;;
9767;SDS011;4923;52.520;13.494;2023-05-07T03:18:28;11.07;;;7.32;;
9767;SDS011;4923;52.520;13.494;2023-05-07T03:21:16;7.70;;;6.90;;
9767;SDS011;4923;52.520;13.494;2023-05-07T03:24:03;11.18;;;6.45;;
9767;SDS011;4923;52.520;13.494;2023-05-07T03:26:50;6.32;;;5.82;;
9767;SDS011;4923;52.520;13.494;2023-05-07T03:29:37;6.25;;;5.68;;
9767;SDS011;4923;52.520;13.494;2023-05-07T03:32:24;7.18;;;6.53;;
9767;SDS011;4923;52.520;13.494;2023-05-07T03:35:11;7.03;;;6.43;;
9767;SDS011;4923;52.520;13.494;2023-05-07T03:37:59;6.90;;;6.40;;
9767;SDS011;4923;52.520;13.494;2023-05-07T03:40:47;7.18;;;6.45;;
9767;SDS011;4923;52.520;13.494;2023-05-07T03:43:33;6.85;;;6.20;;
9767;SDS011;4923;52.520;13.494;2023-05-07T03:46:20;6.63;;;5.82;;
9767;SDS011;4923;52.520;13.494;2023-05-07T03:49:07;7.10;;;6.40;;
9767;SDS011;4923;52.520;13.494;2023-05-07T03:51:54;8.45;;;6.28;;
9767;SDS011;4923;52.520;13.494;2023-05-07T03:54:43;6.72;;;4.88;;
9767;SDS011;4923;52.520;13.494;2023-05-07T03:57:29;6.15;;;5.65;;
9767;SDS011;4923;52.520;13.494;2023-05-07T04:00:16;8.07;;;6.53;;
9767;SDS011;4923;52.520;13.494;2023-05-07T04:03:05;10.32;;;6.05;;
9767;SDS011;4923;52.520;13.494;2023-05-07T04:05:52;6.72;;;6.13;;
9767;SDS011;4923;52.520;13.494;2023-05-07T04:08:39;7.57;;;6.32;;
9767;SDS011;4923;52.520;13.494;2023-05-07T04:11:27;9.43;;;5.20;;
9767;SDS011;4923;52.520;13.494;2023-05-07T04:14:14;9.60;;;5.70;;
9767;SDS011;4923;52.520;13.494;2023-05-07T04:17:00;7.60;;;6.35;;
9767;SDS011;4923;52.520;13.494;2023-05-07T04:19:48;9.27;;;5.70;;
9767;SDS011;4923;52.520;13.494;2023-05-07T04:22:34;5.93;;;5.55;;
9767;SDS011;4923;52.520;13.494;2023-05-07T04:25:21;5.85;;;5.30;;
9767;SDS011;4923;52.520;13.494;2023-05-07T04:28:13;5.25;;;4.80;;
9767;SDS011;4923;52.520;13.494;2023-05-07T04:31:00;5.38;;;4.90;;
9767;SDS011;4923;52.520;13.494;2023-05-07T04:33:47;5.30;;;4.40;;
9767;SDS011;4923;52.520;13.494;2023-05-07T04:36:33;5.10;;;4.60;;
9767;SDS011;4923;52.520;13.494;2023-05-07T04:39:20;5.65;;;5.15;;
9767;SDS011;4923;52.520;13.494;2023-05-07T04:42:07;5.10;;;4.70;;
9767;SDS011;4923;52.520;13.494;2023-05-07T04:44:56;7.80;;;4.63;;
9767;SDS011;4923;52.520;13.494;2023-05-07T04:47:43;4.72;;;4.30;;
9767;SDS011;4923;52.520;13.494;2023-05-07T04:50:29;5.20;;;4.70;;
9767;SDS011;4923;52.520;13.494;2023-05-07T04:53:16;3.95;;;3.85;;
9767;SDS011;4923;52.520;13.494;2023-05-07T04:56:04;5.22;;;4.80;;
9767;SDS011;4923;52.520;13.494;2023-05-07T04:58:51;4.40;;;4.10;;
9767;SDS011;4923;52.520;13.494;2023-05-07T05:01:39;4.60;;;4.20;;
9767;SDS011;4923;52.520;13.494;2023-05-07T05:04:26;5.88;;;4.47;;
9767;SDS011;4923;52.520;13.494;2023-05-07T05:07:12;4.30;;;3.95;;
9767;SDS011;4923;52.520;13.494;2023-05-07T05:09:59;4.22;;;3.92;;
9767;SDS011;4923;52.520;13.494;2023-05-07T05:12:46;4.55;;;4.15;;
9767;SDS011;4923;52.520;13.494;2023-05-07T05:15:33;4.90;;;4.18;;
9767;SDS011;4923;52.520;13.494;2023-05-07T05:18:21;8.23;;;4.00;;
9767;SDS011;4923;52.520;13.494;2023-05-07T05:21:08;4.75;;;4.45;;
9767;SDS011;4923;52.520;13.494;2023-05-07T05:23:55;5.05;;;4.30;;
9767;SDS011;4923;52.520;13.494;2023-05-07T05:26:42;4.55;;;4.20;;
9767;SDS011;4923;52.520;13.494;2023-05-07T05:29:29;5.05;;;4.75;;
9767;SDS011;4923;52.520;13.494;2023-05-07T05:32:16;5.90;;;4.85;;
9767;SDS011;4923;52.520;13.494;2023-05-07T05:35:05;4.95;;;3.85;;
9767;SDS011;4923;52.520;13.494;2023-05-07T05:37:52;5.13;;;4.32;;
9767;SDS011;4923;52.520;13.494;2023-05-07T05:40:39;7.90;;;3.80;;
9767;SDS011;4923;52.520;13.494;2023-05-07T05:43:26;11.02;;;4.63;;
9767;SDS011;4923;52.520;13.494;2023-05-07T05:46:13;4.57;;;4.28;;
9767;SDS011;4923;52.520;13.494;2023-05-07T05:48:59;4.40;;;4.10;;
9767;SDS011;4923;52.520;13.494;2023-05-07T05:51:48;4.10;;;3.80;;
9767;SDS011;4923;52.520;13.494;2023-05-07T05:54:34;5.40;;;4.45;;
9767;SDS011;4923;52.520;13.494;2023-05-07T05:57:21;4.80;;;4.40;;
9767;SDS011;4923;52.520;13.494;2023-05-07T06:00:09;11.85;;;3.95;;
9767;SDS011;4923;52.520;13.494;2023-05-07T06:02:56;6.05;;;4.90;;
9767;SDS011;4923;52.520;13.494;2023-05-07T06:05:43;4.57;;;4.18;;
9767;SDS011;4923;52.520;13.494;2023-05-07T06:08:31;4.05;;;3.85;;
9767;SDS011;4923;52.520;13.494;2023-05-07T06:11:18;4.40;;;4.10;;
9767;SDS011;4923;52.520;13.494;2023-05-07T06:14:05;3.85;;;3.25;;
9767;SDS011;4923;52.520;13.494;2023-05-07T06:16:52;4.90;;;4.50;;
9767;SDS011;4923;52.520;13.494;2023-05-07T06:19:39;4.35;;;3.97;;
9767;SDS011;4923;52.520;13.494;2023-05-07T06:22:25;6.97;;;4.20;;
9767;SDS011;4923;52.520;13.494;2023-05-07T06:25:14;3.40;;;3.20;;
9767;SDS011;4923;52.520;13.494;2023-05-07T06:28:01;4.07;;;3.67;;
9767;SDS011;4923;52.520;13.494;2023-05-07T06:30:48;7.22;;;3.83;;
9767;SDS011;4923;52.520;13.494;2023-05-07T06:33:35;9.07;;;4.82;;
9767;SDS011;4923;52.520;13.494;2023-05-07T06:36:21;3.92;;;3.58;;
9767;SDS011;4923;52.520;13.494;2023-05-07T06:39:08;4.38;;;3.35;;
9767;SDS011;4923;52.520;13.494;2023-05-07T06:41:57;3.60;;;3.30;;
9767;SDS011;4923;52.520;13.494;2023-05-07T06:44:43;3.42;;;3.22;;
9767;SDS011;4923;52.520;13.494;2023-05-07T06:47:30;3.57;;;3.27;;
9767;SDS011;4923;52.520;13.494;2023-05-07T06:50:17;2.92;;;2.72;;
9767;SDS011;4923;52.520;13.494;2023-05-07T06:53:04;2.97;;;2.83;;
9767;SDS011;4923;52.520;13.494;2023-05-07T06:55:51;3.75;;;3.38;;
9767;SDS011;4923;52.520;13.494;2023-05-07T06:58:39;3.78;;;2.85;;
9767;SDS011;4923;52.520;13.494;2023-05-07T07:01:26;3.03;;;2.83;;
9767;SDS011;4923;52.520;13.494;2023-05-07T07:04:13;2.80;;;2.70;;
9767;SDS011;4923;52.520;13.494;2023-05-07T07:07:00;3.13;;;3.03;;
9767;SDS011;4923;52.520;13.494;2023-05-07T07:09:47;4.90;;;3.20;;
9767;SDS011;4923;52.520;13.494;2023-05-07T07:12:35;2.88;;;2.78;;
9767;SDS011;4923;52.520;13.494;2023-05-07T07:15:24;3.58;;;3.08;;
9767;SDS011;4923;52.520;13.494;2023-05-07T07:18:12;2.83;;;2.65;;
9767;SDS011;4923;52.520;13.494;2023-05-07T07:20:58;2.15;;;2.05;;
9767;SDS011;4923;52.520;13.494;2023-05-07T07:23:45;7.35;;;2.83;;
9767;SDS011;4923;52.520;13.494;2023-05-07T07:26:32;2.55;;;2.35;;
9767;SDS011;4923;52.520;13.494;2023-05-07T07:29:19;2.70;;;1.83;;
9767;SDS011;4923;52.520;13.494;2023-05-07T07:32:07;2.75;;;2.45;;
9767;SDS011;4923;52.520;13.494;2023-05-07T07:34:54;4.82;;;2.58;;
9767;SDS011;4923;52.520;13.494;2023-05-07T07:37:41;2.97;;;1.85;;
9767;SDS011;4923;52.520;13.494;2023-05-07T07:40:28;4.07;;;2.75;;
9767;SDS011;4923;52.520;13.494;2023-05-07T07:43:15;2.22;;;2.22;;
9767;SDS011;4923;52.520;13.494;2023-05-07T07:46:02;2.40;;;2.30;;
9767;SDS011;4923;52.520;13.494;2023-05-07T07:48:50;5.60;;;2.35;;
9767;SDS011;4923;52.520;13.494;2023-05-07T07:51:37;1.65;;;1.65;;
9767;SDS011;4923;52.520;13.494;2023-05-07T07:54:24;2.42;;;2.42;;
9767;SDS011;4923;52.520;13.494;2023-05-07T07:57:11;2.10;;;2.00;;
9767;SDS011;4923;52.520;13.494;2023-05-07T07:59:58;2.00;;;2.00;;
9767;SDS011;4923;52.520;13.494;2023-05-07T08:02:46;1.70;;;1.60;;
9767;SDS011;4923;52.520;13.494;2023-05-07T08:05:34;1.77;;;1.67;;
9767;SDS011;4923;52.520;13.494;2023-05-07T08:08:21;7.30;;;1.73;;
9767;SDS011;4923;52.520;13.494;2023-05-07T08:11:08;1.43;;;1.30;;
9767;SDS011;4923;52.520;13.494;2023-05-07T08:13:55;2.35;;;2.15;;
9767;SDS011;4923;52.520;13.494;2023-05-07T08:16:42;6.73;;;1.60;;
9767;SDS011;4923;52.520;13.494;2023-05-07T08:19:29;1.57;;;1.47;;
9767;SDS011;4923;52.520;13.494;2023-05-07T08:22:17;2.38;;;1.48;;
9767;SDS011;4923;52.520;13.494;2023-05-07T08:25:04;2.50;;;2.40;;
9767;SDS011;4923;52.520;13.494;2023-05-07T08:27:52;2.03;;;1.93;;
9767;SDS011;4923;52.520;13.494;2023-05-07T08:30:39;2.83;;;1.37;;
9767;SDS011;4923;52.520;13.494;2023-05-07T08:33:27;1.67;;;1.57;;
9767;SDS011;4923;52.520;13.494;2023-05-07T08:36:14;2.53;;;1.43;;
9767;SDS011;4923;52.520;13.494;2023-05-07T08:39:02;2.70;;;2.17;;
9767;SDS011;4923;52.520;13.494;2023-05-07T08:41:49;1.60;;;1.50;;
9767;SDS011;4923;52.520;13.494;2023-05-07T08:44:39;1.23;;;1.13;;
9767;SDS011;4923;52.520;13.494;2023-05-07T08:47:29;2.30;;;1.40;;
9767;SDS011;4923;52.520;13.494;2023-05-07T08:50:20;7.00;;;1.40;;
9767;SDS011;4923;52.520;13.494;2023-05-07T08:53:07;1.70;;;1.20;;
9767;SDS011;4923;52.520;13.494;2023-05-07T08:55:56;1.73;;;1.73;;
9767;SDS011;4923;52.520;13.494;2023-05-07T08:58:43;1.70;;;1.70;;
9767;SDS011;4923;52.520;13.494;2023-05-07T09:01:30;1.90;;;1.80;;
9767;SDS011;4923;52.520;13.494;2023-05-07T09:04:17;1.67;;;1.60;;
9767;SDS011;4923;52.520;13.494;2023-05-07T09:07:04;1.40;;;1.40;;
9767;SDS011;4923;52.520;13.494;2023-05-07T09:09:51;2.40;;;1.10;;
9767;SDS011;4923;52.520;13.494;2023-05-07T09:12:41;3.23;;;1.10;;
9767;SDS011;4923;52.520;13.494;2023-05-07T09:15:28;1.13;;;1.13;;
9767;SDS011;4923;52.520;13.494;2023-05-07T09:18:15;1.27;;;1.27;;
9767;SDS011;4923;52.520;13.494;2023-05-07T09:21:02;1.33;;;1.33;;
9767;SDS011;4923;52.520;13.494;2023-05-07T09:23:50;2.40;;;1.53;;
9767;SDS011;4923;52.520;13.494;2023-05-07T09:26:37;3.33;;;1.33;;
9767;SDS011;4923;52.520;13.494;2023-05-07T09:29:25;1.83;;;1.33;;
9767;SDS011;4923;52.520;13.494;2023-05-07T09:32:14;1.60;;;1.50;;
9767;SDS011;4923;52.520;13.494;2023-05-07T09:35:01;2.03;;;1.93;;
9767;SDS011;4923;52.520;13.494;2023-05-07T09:37:48;3.60;;;1.73;;
9767;SDS011;4923;52.520;13.494;2023-05-07T09:40:35;1.40;;;1.30;;
9767;SDS011;4923;52.520;13.494;2023-05-07T09:43:22;1.50;;;1.40;;
9767;SDS011;4923;52.520;13.494;2023-05-07T09:46:12;3.27;;;1.10;;
9767;SDS011;4923;52.520;13.494;2023-05-07T09:49:02;1.03;;;1.03;;
9767;SDS011;4923;52.520;13.494;2023-05-07T09:51:49;1.43;;;0.70;;
9767;SDS011;4923;52.520;13.494;2023-05-07T09:54:37;2.63;;;0.90;;
9767;SDS011;4923;52.520;13.494;2023-05-07T09:57:28;1.67;;;0.87;;
9767;SDS011;4923;52.520;13.494;2023-05-07T10:00:16;1.33;;;1.33;;
9767;SDS011;4923;52.520;13.494;2023-05-07T10:03:06;1.27;;;0.93;;
9767;SDS011;4923;52.520;13.494;2023-05-07T10:05:54;0.70;;;0.70;;
9767;SDS011;4923;52.520;13.494;2023-05-07T10:08:42;1.00;;;1.00;;
9767;SDS011;4923;52.520;13.494;2023-05-07T10:11:31;1.90;;;0.83;;
9767;SDS011;4923;52.520;13.494;2023-05-07T10:14:19;5.73;;;0.90;;
9767;SDS011;4923;52.520;13.494;2023-05-07T10:17:07;0.70;;;0.70;;
9767;SDS011;4923;52.520;13.494;2023-05-07T10:19:58;0.80;;;0.80;;
9767;SDS011;4923;52.520;13.494;2023-05-07T10:22:45;1.90;;;0.80;;
9767;SDS011;4923;52.520;13.494;2023-05-07T10:25:34;0.73;;;0.73;;
9767;SDS011;4923;52.520;13.494;2023-05-07T10:28:21;6.23;;;0.73;;
9767;SDS011;4923;52.520;13.494;2023-05-07T10:31:15;1.53;;;1.00;;
9767;SDS011;4923;52.520;13.494;2023-05-07T10:34:16;0.80;;;0.80;;
9767;SDS011;4923;52.520;13.494;2023-05-07T10:37:09;1.63;;;1.00;;
9767;SDS011;4923;52.520;13.494;2023-05-07T10:39:57;1.17;;;1.10;;
9767;SDS011;4923;52.520;13.494;2023-05-07T10:42:54;1.30;;;0.90;;
9767;SDS011;4923;52.520;13.494;2023-05-07T10:45:42;2.53;;;1.00;;
9767;SDS011;4923;52.520;13.494;2023-05-07T10:48:29;1.50;;;1.23;;
9767;SDS011;4923;52.520;13.494;2023-05-07T10:51:19;1.00;;;1.00;;
9767;SDS011;4923;52.520;13.494;2023-05-07T10:54:23;0.77;;;0.70;;
9767;SDS011;4923;52.520;13.494;2023-05-07T11:03:32;2.20;;;1.10;;
9767;SDS011;4923;52.520;13.494;2023-05-07T11:06:19;1.33;;;0.80;;
9767;SDS011;4923;52.520;13.494;2023-05-07T11:09:06;1.60;;;0.83;;
9767;SDS011;4923;52.520;13.494;2023-05-07T11:11:54;0.87;;;0.87;;
9767;SDS011;4923;52.520;13.494;2023-05-07T11:14:44;4.60;;;0.80;;
9767;SDS011;4923;52.520;13.494;2023-05-07T11:17:31;0.70;;;0.70;;
9767;SDS011;4923;52.520;13.494;2023-05-07T11:20:19;0.83;;;0.70;;
9767;SDS011;4923;52.520;13.494;2023-05-07T11:23:07;0.90;;;0.90;;
9767;SDS011;4923;52.520;13.494;2023-05-07T11:25:57;1.07;;;0.80;;
9767;SDS011;4923;52.520;13.494;2023-05-07T11:28:47;1.70;;;0.87;;
9767;SDS011;4923;52.520;13.494;2023-05-07T11:31:34;0.90;;;0.90;;
9767;SDS011;4923;52.520;13.494;2023-05-07T11:34:22;2.23;;;1.10;;
9767;SDS011;4923;52.520;13.494;2023-05-07T11:37:10;2.03;;;0.97;;
9767;SDS011;4923;52.520;13.494;2023-05-07T11:40:04;2.50;;;1.47;;
9767;SDS011;4923;52.520;13.494;2023-05-07T11:42:52;0.63;;;0.63;;
9767;SDS011;4923;52.520;13.494;2023-05-07T11:45:41;1.10;;;1.10;;
9767;SDS011;4923;52.520;13.494;2023-05-07T11:48:28;0.60;;;0.60;;
9767;SDS011;4923;52.520;13.494;2023-05-07T11:51:18;0.77;;;0.77;;
9767;SDS011;4923;52.520;13.494;2023-05-07T11:54:05;1.80;;;0.83;;
9767;SDS011;4923;52.520;13.494;2023-05-07T11:56:53;1.10;;;0.93;;
9767;SDS011;4923;52.520;13.494;2023-05-07T11:59:43;6.33;;;0.90;;
9767;SDS011;4923;52.520;13.494;2023-05-07T12:02:33;0.87;;;0.87;;
9767;SDS011;4923;52.520;13.494;2023-05-07T12:05:20;3.73;;;0.90;;
9767;SDS011;4923;52.520;13.494;2023-05-07T12:08:07;0.80;;;0.80;;
9767;SDS011;4923;52.520;13.494;2023-05-07T12:10:54;1.00;;;1.00;;
9767;SDS011;4923;52.520;13.494;2023-05-07T12:13:41;0.73;;;0.70;;
9767;SDS011;4923;52.520;13.494;2023-05-07T12:16:28;0.77;;;0.77;;
9767;SDS011;4923;52.520;13.494;2023-05-07T12:19:17;1.23;;;0.90;;
9767;SDS011;4923;52.520;13.494;2023-05-07T12:22:05;0.67;;;0.67;;
9767;SDS011;4923;52.520;13.494;2023-05-07T12:24:56;0.80;;;0.80;;
9767;SDS011;4923;52.520;13.494;2023-05-07T12:27:44;1.60;;;0.90;;
9767;SDS011;4923;52.520;13.494;2023-05-07T12:30:37;1.53;;;0.80;;
9767;SDS011;4923;52.520;13.494;2023-05-07T12:33:25;0.80;;;0.80;;
9767;SDS011;4923;52.520;13.494;2023-05-07T12:36:15;1.83;;;1.73;;
9767;SDS011;4923;52.520;13.494;2023-05-07T12:39:01;5.43;;;0.80;;
9767;SDS011;4923;52.520;13.494;2023-05-07T12:41:57;0.90;;;0.90;;
9767;SDS011;4923;52.520;13.494;2023-05-07T12:44:45;0.87;;;0.60;;
9767;SDS011;4923;52.520;13.494;2023-05-07T12:47:32;2.20;;;0.90;;
9767;SDS011;4923;52.520;13.494;2023-05-07T12:50:19;0.80;;;0.80;;
9767;SDS011;4923;52.520;13.494;2023-05-07T12:53:11;1.27;;;1.17;;
9767;SDS011;4923;52.520;13.494;2023-05-07T12:56:00;0.90;;;0.63;;
9767;SDS011;4923;52.520;13.494;2023-05-07T12:58:48;1.90;;;0.70;;
9767;SDS011;4923;52.520;13.494;2023-05-07T13:01:35;2.83;;;0.60;;
9767;SDS011;4923;52.520;13.494;2023-05-07T13:04:24;2.00;;;0.73;;
9767;SDS011;4923;52.520;13.494;2023-05-07T13:07:11;0.70;;;0.70;;
9767;SDS011;4923;52.520;13.494;2023-05-07T13:09:59;1.00;;;1.00;;
9767;SDS011;4923;52.520;13.494;2023-05-07T13:12:46;2.10;;;0.87;;
9767;SDS011;4923;52.520;13.494;2023-05-07T13:15:32;0.60;;;0.60;;
9767;SDS011;4923;52.520;13.494;2023-05-07T13:18:19;0.87;;;0.70;;
9767;SDS011;4923;52.520;13.494;2023-05-07T13:21:06;1.60;;;0.80;;
9767;SDS011;4923;52.520;13.494;2023-05-07T13:23:53;1.23;;;0.80;;
9767;SDS011;4923;52.520;13.494;2023-05-07T13:26:41;1.03;;;1.00;;
9767;SDS011;4923;52.520;13.494;2023-05-07T13:29:28;0.70;;;0.70;;
9767;SDS011;4923;52.520;13.494;2023-05-07T13:32:15;5.30;;;0.93;;
9767;SDS011;4923;52.520;13.494;2023-05-07T13:35:02;0.60;;;0.60;;
9767;SDS011;4923;52.520;13.494;2023-05-07T13:37:49;17.53;;;1.83;;
9767;SDS011;4923;52.520;13.494;2023-05-07T13:40:37;0.67;;;0.67;;
9767;SDS011;4923;52.520;13.494;2023-05-07T13:43:25;2.20;;;0.60;;
9767;SDS011;4923;52.520;13.494;2023-05-07T13:46:12;3.50;;;0.60;;
9767;SDS011;4923;52.520;13.494;2023-05-07T13:48:59;1.60;;;0.53;;
9767;SDS011;4923;52.520;13.494;2023-05-07T13:51:46;0.70;;;0.70;;
9767;SDS011;4923;52.520;13.494;2023-05-07T13:54:32;0.90;;;0.90;;
9767;SDS011;4923;52.520;13.494;2023-05-07T13:57:19;0.90;;;0.90;;
9767;SDS011;4923;52.520;13.494;2023-05-07T14:00:08;0.70;;;0.70;;
9767;SDS011;4923;52.520;13.494;2023-05-07T14:02:56;0.60;;;0.60;;
9767;SDS011;4923;52.520;13.494;2023-05-07T14:05:43;0.70;;;0.70;;
9767;SDS011;4923;52.520;13.494;2023-05-07T14:08:30;0.60;;;0.60;;
9767;SDS011;4923;52.520;13.494;2023-05-07T14:11:17;0.70;;;0.70;;
9767;SDS011;4923;52.520;13.494;2023-05-07T14:14:04;2.93;;;0.90;;
9767;SDS011;4923;52.520;13.494;2023-05-07T14:16:52;1.77;;;0.70;;
9767;SDS011;4923;52.520;13.494;2023-05-07T14:19:39;3.37;;;1.00;;
9767;SDS011;4923;52.520;13.494;2023-05-07T14:22:26;2.47;;;0.60;;
9767;SDS011;4923;52.520;13.494;2023-05-07T14:25:13;1.87;;;0.80;;
9767;SDS011;4923;52.520;13.494;2023-05-07T14:28:00;0.70;;;0.70;;
9767;SDS011;4923;52.520;13.494;2023-05-07T14:30:47;3.03;;;0.70;;
9767;SDS011;4923;52.520;13.494;2023-05-07T14:33:35;2.00;;;0.60;;
9767;SDS011;4923;52.520;13.494;2023-05-07T14:36:22;1.00;;;0.80;;
9767;SDS011;4923;52.520;13.494;2023-05-07T14:39:11;2.10;;;0.70;;
9767;SDS011;4923;52.520;13.494;2023-05-07T14:41:58;0.60;;;0.60;;
9767;SDS011;4923;52.520;13.494;2023-05-07T14:44:45;1.00;;;0.90;;
9767;SDS011;4923;52.520;13.494;2023-05-07T14:47:33;1.17;;;0.77;;
9767;SDS011;4923;52.520;13.494;2023-05-07T14:50:21;0.70;;;0.70;;
9767;SDS011;4923;52.520;13.494;2023-05-07T14:53:08;0.73;;;0.73;;
9767;SDS011;4923;52.520;13.494;2023-05-07T14:55:55;2.60;;;0.90;;
9767;SDS011;4923;52.520;13.494;2023-05-07T14:58:42;0.97;;;0.97;;
9767;SDS011;4923;52.520;13.494;2023-05-07T15:01:29;3.20;;;0.70;;
9767;SDS011;4923;52.520;13.494;2023-05-07T15:04:16;3.47;;;1.00;;
9767;SDS011;4923;52.520;13.494;2023-05-07T15:07:05;0.70;;;0.70;;
9767;SDS011;4923;52.520;13.494;2023-05-07T15:09:51;3.13;;;0.60;;
9767;SDS011;4923;52.520;13.494;2023-05-07T15:12:39;0.60;;;0.60;;
9767;SDS011;4923;52.520;13.494;2023-05-07T15:15:27;0.80;;;0.60;;
9767;SDS011;4923;52.520;13.494;2023-05-07T15:18:14;0.60;;;0.40;;
9767;SDS011;4923;52.520;13.494;2023-05-07T15:21:01;2.10;;;0.73;;
9767;SDS011;4923;52.520;13.494;2023-05-07T15:23:49;4.93;;;0.67;;
9767;SDS011;4923;52.520;13.494;2023-05-07T15:26:36;0.50;;;0.50;;
9767;SDS011;4923;52.520;13.494;2023-05-07T15:29:23;3.43;;;0.90;;
9767;SDS011;4923;52.520;13.494;2023-05-07T15:32:10;1.13;;;0.63;;
9767;SDS011;4923;52.520;13.494;2023-05-07T15:34:57;0.60;;;0.60;;
9767;SDS011;4923;52.520;13.494;2023-05-07T15:37:43;1.10;;;1.10;;
9767;SDS011;4923;52.520;13.494;2023-05-07T15:40:32;1.90;;;1.80;;
9767;SDS011;4923;52.520;13.494;2023-05-07T15:43:20;1.03;;;1.03;;
9767;SDS011;4923;52.520;13.494;2023-05-07T15:46:07;1.60;;;0.60;;
9767;SDS011;4923;52.520;13.494;2023-05-07T15:48:54;0.60;;;0.60;;
9767;SDS011;4923;52.520;13.494;2023-05-07T15:51:41;1.70;;;0.60;;
9767;SDS011;4923;52.520;13.494;2023-05-07T15:54:28;2.00;;;0.53;;
9767;SDS011;4923;52.520;13.494;2023-05-07T15:57:17;0.50;;;0.50;;
9767;SDS011;4923;52.520;13.494;2023-05-07T16:00:04;0.67;;;0.60;;
9767;SDS011;4923;52.520;13.494;2023-05-07T16:02:53;2.57;;;0.60;;
9767;SDS011;4923;52.520;13.494;2023-05-07T16:05:40;0.50;;;0.50;;
9767;SDS011;4923;52.520;13.494;2023-05-07T16:08:27;6.47;;;0.63;;
9767;SDS011;4923;52.520;13.494;2023-05-07T16:11:15;0.63;;;0.63;;
9767;SDS011;4923;52.520;13.494;2023-05-07T16:14:03;1.90;;;0.60;;
9767;SDS011;4923;52.520;13.494;2023-05-07T16:16:49;1.10;;;0.60;;
9767;SDS011;4923;52.520;13.494;2023-05-07T16:19:36;2.57;;;0.70;;
9767;SDS011;4923;52.520;13.494;2023-05-07T16:22:23;0.60;;;0.60;;
9767;SDS011;4923;52.520;13.494;2023-05-07T16:25:10;0.70;;;0.70;;
9767;SDS011;4923;52.520;13.494;2023-05-07T16:27:58;0.80;;;0.50;;
9767;SDS011;4923;52.520;13.494;2023-05-07T16:30:47;0.80;;;0.67;;
9767;SDS011;4923;52.520;13.494;2023-05-07T16:33:34;1.37;;;0.50;;
9767;SDS011;4923;52.520;13.494;2023-05-07T16:36:21;0.50;;;0.50;;
9767;SDS011;4923;52.520;13.494;2023-05-07T16:39:08;0.50;;;0.50;;
9767;SDS011;4923;52.520;13.494;2023-05-07T16:41:55;0.90;;;0.90;;
9767;SDS011;4923;52.520;13.494;2023-05-07T16:44:42;0.50;;;0.50;;
9767;SDS011;4923;52.520;13.494;2023-05-07T16:47:30;0.97;;;0.60;;
9767;SDS011;4923;52.520;13.494;2023-05-07T16:50:20;1.40;;;1.40;;
9767;SDS011;4923;52.520;13.494;2023-05-07T16:53:07;0.60;;;0.60;;
9767;SDS011;4923;52.520;13.494;2023-05-07T16:55:55;0.50;;;0.50;;
9767;SDS011;4923;52.520;13.494;2023-05-07T16:58:42;1.00;;;0.70;;
9767;SDS011;4923;52.520;13.494;2023-05-07T17:01:29;0.50;;;0.50;;
9767;SDS011;4923;52.520;13.494;2023-05-07T17:04:18;0.97;;;0.67;;
9767;SDS011;4923;52.520;13.494;2023-05-07T17:07:05;2.27;;;0.60;;
9767;SDS011;4923;52.520;13.494;2023-05-07T17:09:52;0.50;;;0.50;;